Time;durP1;ratioP1;P1;durP2;ratioP2;P2;SDS_P1;SDS_P2;PMS_P1;PMS_P2;Temp;Humidity;BMP_temperature;BMP_pressure;BME280_temperature;BME280_humidity;BME280_pressure;Samples;Min_cycle;Max_cycle;Signal;HPM_P1;HPM_P2
2022/09/01 00:01:20;;;;;;;;;;;25.90;79.30;;;;;;5012990;28;19929;-58
2022/09/01 00:03:48;;;;;;;;;;;25.90;79.30;;;;;;5014410;28;19940;-62
2022/09/01 00:06:21;;;;;;;;;;;25.90;79.30;;;;;;5005979;28;19930;-59
2022/09/01 00:08:52;;;;;;;;;;;25.90;79.30;;;;;;5015545;28;20021;-60
2022/09/01 00:11:20;;;;;;;;;;;25.90;79.30;;;;;;5014525;28;19929;-58
2022/09/01 00:13:48;;;;;;;;;;;25.90;79.30;;;;;;5017380;28;19938;-58
2022/09/01 00:16:17;;;;;;;;;;;25.90;79.30;;;;;;5013019;28;19960;-59
2022/09/01 00:18:46;;;;;;;;;;;25.90;79.30;;;;;;5008189;28;19936;-58
2022/09/01 00:21:14;;;;;;;;;;;25.90;79.30;;;;;;5010579;28;19933;-61
2022/09/01 00:23:41;;;;;;;;;;;25.90;79.40;;;;;;5022110;28;19936;-59
2022/09/01 00:26:08;;;;;;;;;;;25.90;79.40;;;;;;5020912;28;19940;-61
2022/09/01 00:28:36;;;;;;;;;;;25.90;79.40;;;;;;5005497;28;19930;-61
2022/09/01 00:31:05;;;;;;;;;;;25.90;79.40;;;;;;5016721;28;19936;-60
2022/09/01 00:33:33;;;;;;;;;;;25.90;79.90;;;;;;5007141;28;19936;-59
2022/09/01 00:36:01;;;;;;;;;;;25.90;79.40;;;;;;5015209;28;19929;-59
2022/09/01 00:38:28;;;;;;;;;;;25.90;79.40;;;;;;5009257;28;19934;-60
2022/09/01 00:40:55;;;;;;;;;;;25.90;79.40;;;;;;5010704;28;19929;-60
2022/09/01 00:43:35;;;;;;;;;;;25.90;79.40;;;;;;5013306;28;19985;-60
2022/09/01 00:46:03;;;;;;;;;;;25.90;79.40;;;;;;5012647;28;19944;-60
2022/09/01 00:48:31;;;;;;;;;;;25.90;79.40;;;;;;5015018;28;19936;-58
2022/09/01 00:50:59;;;;;;;;;;;25.80;79.40;;;;;;5005566;28;19929;-61
2022/09/01 00:53:27;;;;;;;;;;;25.80;79.30;;;;;;5005010;28;19925;-60
2022/09/01 00:55:54;;;;;;;;;;;25.90;79.40;;;;;;5011155;28;19930;-60
2022/09/01 00:58:22;;;;;;;;;;;25.80;79.30;;;;;;5017977;28;19948;-60
2022/09/01 01:00:51;;;;;;;;;;;25.80;79.40;;;;;;5000773;28;20408;-57
2022/09/01 01:03:18;;;;;;;;;;;25.80;79.30;;;;;;5002474;28;19934;-58
2022/09/01 01:05:52;;;;;;;;;;;25.80;79.30;;;;;;5012482;28;19925;-61
2022/09/01 01:08:32;;;;;;;;;;;25.80;79.30;;;;;;5006421;28;19929;-60
2022/09/01 01:11:01;;;;;;;;;;;25.80;79.30;;;;;;5014687;28;19929;-59
2022/09/01 01:13:48;;;;;;;;;;;25.80;79.30;;;;;;5001349;28;19940;-61
2022/09/01 01:16:15;;;;;;;;;;;25.80;79.30;;;;;;5002135;28;19930;-59
2022/09/01 01:18:43;;;;;;;;;;;25.80;79.40;;;;;;5008440;28;19930;-61
2022/09/01 01:24:33;;;;;;;;;;;25.80;79.40;;;;;;5016303;28;19925;-58
2022/09/01 01:27:04;;;;;;;;;;;25.80;79.40;;;;;;5005172;28;19936;-55
2022/09/01 01:29:32;;;;;;;;;;;25.80;79.40;;;;;;5010770;28;20419;-60
2022/09/01 01:32:00;;;;;;;;;;;25.80;79.40;;;;;;5012979;28;19930;-60
2022/09/01 01:34:28;;;;;;;;;;;25.80;79.30;;;;;;5016935;28;19934;-58
2022/09/01 01:37:00;;;;;;;;;;;25.80;79.40;;;;;;5000855;28;19930;-58
2022/09/01 01:39:27;;;;;;;;;;;25.80;79.30;;;;;;5015563;28;19941;-57
2022/09/01 01:41:57;;;;;;;;;;;25.80;79.40;;;;;;4997658;28;19937;-59
2022/09/01 01:44:27;;;;;;;;;;;25.80;79.40;;;;;;5006506;28;19929;-58
2022/09/01 01:46:58;;;;;;;;;;;25.80;79.40;;;;;;5009512;28;19936;-60
2022/09/01 01:49:27;;;;;;;;;;;25.80;79.30;;;;;;5010000;28;19929;-56
2022/09/01 01:51:56;;;;;;;;;;;25.80;79.40;;;;;;5002069;28;19930;-61
2022/09/01 01:54:31;;;;;;;;;;;25.70;79.30;;;;;;5008158;28;19934;-58
2022/09/01 01:56:59;;;;;;;;;;;25.80;79.30;;;;;;5013929;28;19929;-59
2022/09/01 01:59:28;;;;;;;;;;;25.80;79.40;;;;;;5023862;28;19936;-61
2022/09/01 02:01:55;;;;;;;;;;;25.70;79.30;;;;;;5027755;28;19929;-59
2022/09/01 02:04:22;;;;;;;;;;;25.70;79.30;;;;;;5008593;28;19930;-60
2022/09/01 02:06:54;;;;;;;;;;;25.70;79.30;;;;;;5024667;28;19929;-62
2022/09/01 02:09:22;;;;;;;;;;;25.70;79.30;;;;;;5024651;28;20309;-61
2022/09/01 02:11:55;;;;;;;;;;;25.70;79.30;;;;;;4997608;28;20417;-59
2022/09/01 02:14:23;;;;;;;;;;;25.70;79.30;;;;;;4997490;28;19930;-60
2022/09/01 02:16:54;;;;;;;;;;;25.70;79.30;;;;;;5012751;28;20364;-60
2022/09/01 02:19:22;;;;;;;;;;;25.70;79.30;;;;;;5015684;28;19932;-60
2022/09/01 02:21:53;;;;;;;;;;;25.70;79.40;;;;;;5011482;28;19934;-60
2022/09/01 02:24:20;;;;;;;;;;;25.70;79.30;;;;;;5019498;28;19929;-59
2022/09/01 02:26:48;;;;;;;;;;;25.70;79.40;;;;;;5016366;28;19929;-59
2022/09/01 02:29:20;;;;;;;;;;;25.70;79.40;;;;;;5009898;28;19929;-63
2022/09/01 02:31:50;;;;;;;;;;;25.70;79.30;;;;;;5020066;28;19929;-58
2022/09/01 02:34:19;;;;;;;;;;;25.70;79.40;;;;;;5012807;28;19929;-60
2022/09/01 02:36:48;;;;;;;;;;;25.70;79.40;;;;;;5006695;28;19929;-59
2022/09/01 02:39:22;;;;;;;;;;;25.70;79.40;;;;;;5007926;28;19930;-60
2022/09/01 02:41:49;;;;;;;;;;;25.60;79.30;;;;;;5006677;28;19929;-59
2022/09/01 02:44:22;;;;;;;;;;;25.70;79.40;;;;;;4994384;28;19926;-59
2022/09/01 02:46:49;;;;;;;;;;;25.70;79.40;;;;;;5012804;28;19941;-60
2022/09/01 02:49:28;;;;;;;;;;;25.70;79.40;;;;;;5014460;28;19937;-59
2022/09/01 02:51:58;;;;;;;;;;;25.70;79.40;;;;;;5019088;28;19936;-59
2022/09/01 02:54:27;;;;;;;;;;;25.60;79.30;;;;;;5015890;28;19930;-59
2022/09/01 02:56:54;;;;;;;;;;;25.70;79.40;;;;;;5026707;28;19929;-59
2022/09/01 02:59:25;;;;;;;;;;;25.60;79.40;;;;;;5015675;28;19936;-57
2022/09/01 03:01:56;;;;;;;;;;;25.60;79.40;;;;;;5003930;28;20260;-59
2022/09/01 03:04:23;;;;;;;;;;;25.60;79.40;;;;;;5015185;28;19930;-60
2022/09/01 03:06:53;;;;;;;;;;;25.60;79.40;;;;;;5014249;28;19930;-61
2022/09/01 03:09:21;;;;;;;;;;;25.60;79.40;;;;;;5020788;28;19929;-60
2022/09/01 03:11:50;;;;;;;;;;;25.60;79.40;;;;;;5008755;28;20423;-59
2022/09/01 03:14:17;;;;;;;;;;;25.60;79.40;;;;;;5006838;28;19934;-59
2022/09/01 03:16:44;;;;;;;;;;;25.60;79.40;;;;;;5015281;28;19936;-60
2022/09/01 03:19:13;;;;;;;;;;;25.60;79.40;;;;;;5010353;28;19938;-60
2022/09/01 03:21:42;;;;;;;;;;;25.60;79.40;;;;;;5011262;28;19929;-58
2022/09/01 03:24:13;;;;;;;;;;;25.60;79.40;;;;;;5013794;28;19936;-60
2022/09/01 03:26:41;;;;;;;;;;;25.60;79.40;;;;;;5017129;28;20556;-60
2022/09/01 03:29:09;;;;;;;;;;;25.60;79.40;;;;;;5007375;28;19926;-60
2022/09/01 03:31:37;;;;;;;;;;;25.60;79.40;;;;;;5006080;28;19930;-61
2022/09/01 03:34:06;;;;;;;;;;;25.60;79.40;;;;;;5019591;28;20228;-60
2022/09/01 03:36:38;;;;;;;;;;;25.60;79.40;;;;;;4999133;28;19930;-58
2022/09/01 03:39:08;;;;;;;;;;;25.60;79.40;;;;;;5008031;28;19934;-59
2022/09/01 03:41:43;;;;;;;;;;;25.60;79.40;;;;;;4997469;28;19930;-61
2022/09/01 03:44:15;;;;;;;;;;;25.50;79.40;;;;;;5009421;28;19933;-60
2022/09/01 03:46:43;;;;;;;;;;;25.60;79.40;;;;;;5006325;28;19925;-61
2022/09/01 03:49:14;;;;;;;;;;;25.60;79.40;;;;;;5013453;28;19930;-58
2022/09/01 03:51:43;;;;;;;;;;;25.60;79.40;;;;;;5010500;28;19936;-59
2022/09/01 03:54:11;;;;;;;;;;;25.60;79.40;;;;;;5020667;28;19933;-60
2022/09/01 03:56:40;;;;;;;;;;;25.60;79.40;;;;;;5012413;28;19929;-59
2022/09/01 03:59:15;;;;;;;;;;;25.60;79.40;;;;;;5016280;28;19925;-57
2022/09/01 04:01:44;;;;;;;;;;;25.50;79.40;;;;;;5019659;28;19929;-56
2022/09/01 04:04:13;;;;;;;;;;;25.50;79.40;;;;;;5012013;28;19929;-60
2022/09/01 04:06:41;;;;;;;;;;;25.50;79.40;;;;;;5016035;28;19940;-60
2022/09/01 04:09:09;;;;;;;;;;;25.50;80.00;;;;;;5011701;28;19941;-58
2022/09/01 04:11:40;;;;;;;;;;;25.50;79.50;;;;;;5008721;28;19929;-59
2022/09/01 04:14:13;;;;;;;;;;;25.50;79.50;;;;;;5003597;28;20413;-59
2022/09/01 04:19:29;;;;;;;;;;;25.50;79.50;;;;;;5007667;28;19940;-59
2022/09/01 04:21:59;;;;;;;;;;;25.50;79.50;;;;;;5017794;28;19936;-61
2022/09/01 04:24:44;;;;;;;;;;;25.50;79.50;;;;;;5023832;28;19928;-61
2022/09/01 04:27:12;;;;;;;;;;;25.50;79.50;;;;;;5015980;28;19929;-61
2022/09/01 04:29:40;;;;;;;;;;;25.50;79.40;;;;;;5008328;28;19949;-62
2022/09/01 04:32:11;;;;;;;;;;;25.50;79.50;;;;;;5022126;28;19929;-59
2022/09/01 04:34:41;;;;;;;;;;;25.50;79.40;;;;;;5017207;28;19933;-61
2022/09/01 04:37:12;;;;;;;;;;;25.50;79.50;;;;;;5011073;28;20016;-59
2022/09/01 04:39:47;;;;;;;;;;;25.50;79.50;;;;;;5009801;28;19930;-61
2022/09/01 04:42:22;;;;;;;;;;;25.50;79.50;;;;;;5007261;28;19937;-60
2022/09/01 04:44:52;;;;;;;;;;;25.50;80.10;;;;;;5014678;28;19929;-60
2022/09/01 04:47:28;;;;;;;;;;;25.50;79.50;;;;;;5009575;28;19929;-61
2022/09/01 04:50:04;;;;;;;;;;;25.50;79.50;;;;;;4994091;28;20312;-62
2022/09/01 04:52:31;;;;;;;;;;;25.50;79.50;;;;;;5015331;28;19929;-58
2022/09/01 04:55:02;;;;;;;;;;;25.50;79.50;;;;;;5001153;28;19952;-60
2022/09/01 04:57:30;;;;;;;;;;;25.50;79.50;;;;;;4999760;28;19929;-59
2022/09/01 04:59:57;;;;;;;;;;;25.50;79.50;;;;;;5011339;28;20316;-62
2022/09/01 05:02:27;;;;;;;;;;;25.40;79.50;;;;;;5001855;28;20397;-61
2022/09/01 05:04:57;;;;;;;;;;;25.50;79.60;;;;;;5009829;28;19937;-60
2022/09/01 05:07:25;;;;;;;;;;;25.40;79.50;;;;;;5007819;28;19929;-60
2022/09/01 05:09:53;;;;;;;;;;;25.40;79.50;;;;;;5006484;28;19933;-60
2022/09/01 05:12:48;;;;;;;;;;;25.40;79.60;;;;;;5011012;28;20084;-61
2022/09/01 05:15:16;;;;;;;;;;;25.40;80.10;;;;;;5016292;28;19931;-62
2022/09/01 05:17:43;;;;;;;;;;;25.40;79.50;;;;;;5005671;28;20393;-61
2022/09/01 05:20:11;;;;;;;;;;;25.40;79.50;;;;;;5010498;28;20279;-58
2022/09/01 05:22:39;;;;;;;;;;;25.50;79.50;;;;;;5022850;28;19928;-62
2022/09/01 05:25:12;;;;;;;;;;;25.40;79.50;;;;;;5010577;28;19932;-63
2022/09/01 05:27:48;;;;;;;;;;;25.40;79.50;;;;;;5033122;28;19930;-59
2022/09/01 05:30:17;;;;;;;;;;;25.40;79.50;;;;;;5016759;28;19925;-62
2022/09/01 05:32:47;;;;;;;;;;;25.40;79.60;;;;;;5012405;28;20405;-62
2022/09/01 05:35:16;;;;;;;;;;;25.40;79.50;;;;;;5012851;28;19930;-62
2022/09/01 05:37:44;;;;;;;;;;;25.40;79.50;;;;;;5016189;28;19936;-61
2022/09/01 05:40:14;;;;;;;;;;;25.40;79.50;;;;;;5008862;28;19936;-57
2022/09/01 05:42:43;;;;;;;;;;;25.40;79.50;;;;;;5019023;28;19937;-63
2022/09/01 05:45:17;;;;;;;;;;;25.40;79.50;;;;;;5011236;28;19929;-62
2022/09/01 05:47:45;;;;;;;;;;;25.40;79.50;;;;;;5019446;28;19953;-62
2022/09/01 05:50:18;;;;;;;;;;;25.40;79.50;;;;;;5010317;28;19972;-60
2022/09/01 05:52:46;;;;;;;;;;;25.40;79.50;;;;;;5026462;28;19936;-63
2022/09/01 05:55:15;;;;;;;;;;;25.40;79.50;;;;;;5007906;28;19929;-62
2022/09/01 05:57:46;;;;;;;;;;;25.40;79.50;;;;;;5012300;28;19936;-61
2022/09/01 06:00:16;;;;;;;;;;;25.40;79.40;;;;;;5016038;28;19925;-60
2022/09/01 06:02:47;;;;;;;;;;;25.40;79.50;;;;;;5010198;28;19925;-61
2022/09/01 06:05:19;;;;;;;;;;;25.40;79.50;;;;;;5017512;28;20444;-61
2022/09/01 06:07:49;;;;;;;;;;;25.40;80.10;;;;;;4989072;28;19925;-59
2022/09/01 06:10:17;;;;;;;;;;;25.40;79.50;;;;;;5003625;28;19946;-56
2022/09/01 06:12:44;;;;;;;;;;;25.40;79.50;;;;;;5012764;28;20385;-57
2022/09/01 06:15:17;;;;;;;;;;;25.40;80.10;;;;;;5014212;28;19930;-62
2022/09/01 06:17:48;;;;;;;;;;;25.40;79.60;;;;;;5017637;28;19929;-63
2022/09/01 06:20:17;;;;;;;;;;;25.40;79.50;;;;;;5013922;28;19926;-63
2022/09/01 06:22:46;;;;;;;;;;;25.30;79.50;;;;;;4988126;28;19930;-63
2022/09/01 06:25:17;;;;;;;;;;;25.40;79.70;;;;;;5010820;28;19930;-62
2022/09/01 06:27:47;;;;;;;;;;;25.40;79.60;;;;;;5015072;28;19933;-60
2022/09/01 06:30:19;;;;;;;;;;;25.30;79.60;;;;;;5003718;28;20354;-60
2022/09/01 06:33:09;;;;;;;;;;;25.30;79.50;;;;;;5016459;28;19929;-63
2022/09/01 06:35:40;;;;;;;;;;;25.40;79.50;;;;;;5022342;28;20420;-61
2022/09/01 06:38:09;;;;;;;;;;;25.30;79.50;;;;;;5020309;28;19929;-61
2022/09/01 06:40:42;;;;;;;;;;;25.30;79.50;;;;;;4999360;28;19933;-62
2022/09/01 06:43:12;;;;;;;;;;;25.30;79.50;;;;;;5009052;28;19929;-61
2022/09/01 06:45:43;;;;;;;;;;;25.30;79.60;;;;;;5005352;28;19933;-61
2022/09/01 06:48:14;;;;;;;;;;;25.30;79.60;;;;;;4994418;28;19930;-64
2022/09/01 06:50:42;;;;;;;;;;;25.30;79.50;;;;;;5009038;28;19929;-62
2022/09/01 06:53:30;;;;;;;;;;;25.30;79.50;;;;;;5008243;28;19940;-59
2022/09/01 06:55:59;;;;;;;;;;;25.30;79.50;;;;;;5004640;28;19933;-61
2022/09/01 06:58:28;;;;;;;;;;;25.30;79.50;;;;;;5015519;28;19933;-63
2022/09/01 07:00:56;;;;;;;;;;;25.30;79.50;;;;;;5007273;28;19931;-61
2022/09/01 07:03:24;;;;;;;;;;;25.30;79.50;;;;;;5029889;28;19929;-57
2022/09/01 07:06:10;;;;;;;;;;;25.30;79.50;;;;;;5032119;28;19941;-62
2022/09/01 07:09:23;;;;;;;;;;;25.30;79.50;;;;;;5023277;28;20453;-64
2022/09/01 07:12:18;;;;;;;;;;;25.30;79.50;;;;;;5023698;28;20416;-65
2022/09/01 07:14:56;;;;;;;;;;;25.30;79.60;;;;;;5024566;28;19932;-62
2022/09/01 07:17:48;;;;;;;;;;;25.30;79.60;;;;;;5019116;28;19936;-62
2022/09/01 07:20:19;;;;;;;;;;;25.30;79.50;;;;;;5024177;28;19926;-59
2022/09/01 07:22:53;;;;;;;;;;;25.40;79.60;;;;;;5022221;28;20185;-62
2022/09/01 07:25:39;;;;;;;;;;;25.30;79.50;;;;;;5003549;28;19925;-59
2022/09/01 07:28:31;;;;;;;;;;;25.30;79.50;;;;;;5024119;28;19929;-61
2022/09/01 07:31:20;;;;;;;;;;;25.30;79.50;;;;;;5018572;28;19929;-62
2022/09/01 07:34:11;;;;;;;;;;;25.30;79.50;;;;;;5006295;28;19936;-64
2022/09/01 07:37:01;;;;;;;;;;;25.30;79.50;;;;;;5017719;28;20645;-63
2022/09/01 07:39:50;;;;;;;;;;;25.30;79.50;;;;;;5012962;28;19925;-64
2022/09/01 07:42:38;;;;;;;;;;;25.30;79.60;;;;;;5017960;28;19951;-55
2022/09/01 07:45:47;;;;;;;;;;;25.30;79.60;;;;;;5016982;28;20401;-62
2022/09/01 07:48:35;;;;;;;;;;;25.30;79.60;;;;;;4999574;28;19945;-64
2022/09/01 07:51:24;;;;;;;;;;;25.30;79.60;;;;;;5010586;28;19932;-60
2022/09/01 07:54:08;;;;;;;;;;;25.30;79.60;;;;;;5017588;28;20622;-62
2022/09/01 07:56:36;;;;;;;;;;;25.30;79.60;;;;;;5018050;28;20285;-64
2022/09/01 07:59:09;;;;;;;;;;;25.30;79.50;;;;;;5009544;28;19932;-61
2022/09/01 08:02:09;;;;;;;;;;;25.30;79.60;;;;;;5002019;28;20556;-59
2022/09/01 08:04:38;;;;;;;;;;;25.30;79.60;;;;;;5023412;28;19926;-60
2022/09/01 08:07:08;;;;;;;;;;;25.30;79.60;;;;;;5018431;28;19983;-60
2022/09/01 08:09:42;;;;;;;;;;;25.30;79.60;;;;;;5019732;28;19929;-60
2022/09/01 08:12:12;;;;;;;;;;;25.30;79.60;;;;;;5007423;28;19930;-58
2022/09/01 08:14:51;;;;;;;;;;;25.30;79.60;;;;;;5015713;28;19933;-60
2022/09/01 08:17:40;;;;;;;;;;;25.30;79.60;;;;;;4999520;28;20352;-61
2022/09/01 08:20:25;;;;;;;;;;;25.30;79.60;;;;;;5011777;28;19930;-61
2022/09/01 08:23:07;;;;;;;;;;;25.30;79.60;;;;;;5023110;28;19925;-61
2022/09/01 08:25:37;;;;;;;;;;;25.30;79.60;;;;;;5021228;28;20315;-61
2022/09/01 08:28:05;;;;;;;;;;;25.40;79.60;;;;;;5012383;28;20370;-60
2022/09/01 08:30:34;;;;;;;;;;;25.30;79.50;;;;;;5015160;28;19929;-62
2022/09/01 08:33:02;;;;;;;;;;;25.30;79.50;;;;;;5026173;28;19968;-63
2022/09/01 08:35:42;;;;;;;;;;;25.30;79.50;;;;;;5010386;28;19929;-60
2022/09/01 08:38:10;;;;;;;;;;;25.30;79.50;;;;;;5017240;28;20009;-60
2022/09/01 08:40:39;;;;;;;;;;;25.40;79.60;;;;;;5018367;28;19929;-62
2022/09/01 08:43:13;;;;;;;;;;;25.30;79.50;;;;;;5015427;28;19925;-60
2022/09/01 08:45:52;;;;;;;;;;;25.40;79.60;;;;;;5018041;28;19925;-62
2022/09/01 08:48:21;;;;;;;;;;;25.30;79.50;;;;;;5013685;28;20690;-58
2022/09/01 08:51:27;;;;;;;;;;;25.40;79.60;;;;;;5009343;28;19936;-62
2022/09/01 08:54:14;;;;;;;;;;;25.30;79.50;;;;;;5009374;28;19929;-62
2022/09/01 08:56:51;;;;;;;;;;;25.30;79.60;;;;;;5025832;28;19929;-62
2022/09/01 08:59:22;;;;;;;;;;;25.30;79.50;;;;;;5017128;28;19932;-61
2022/09/01 09:02:22;;;;;;;;;;;25.30;79.50;;;;;;5018371;28;19936;-62
2022/09/01 09:05:04;;;;;;;;;;;25.40;79.60;;;;;;5022402;28;19926;-58
2022/09/01 09:07:51;;;;;;;;;;;25.40;79.60;;;;;;5009700;28;20286;-63
2022/09/01 09:10:25;;;;;;;;;;;25.40;79.60;;;;;;5021952;28;19930;-62
2022/09/01 09:13:12;;;;;;;;;;;25.30;79.60;;;;;;5019437;28;19929;-62
2022/09/01 09:15:46;;;;;;;;;;;25.40;79.60;;;;;;5014577;28;19930;-62
2022/09/01 09:18:22;;;;;;;;;;;25.30;79.50;;;;;;5032152;28;19936;-64
2022/09/01 09:21:19;;;;;;;;;;;25.30;79.60;;;;;;5012554;28;19937;-60
2022/09/01 09:23:49;;;;;;;;;;;25.30;79.60;;;;;;5017356;28;20397;-59
2022/09/01 09:26:19;;;;;;;;;;;25.40;79.60;;;;;;5008407;28;19941;-63
2022/09/01 09:28:48;;;;;;;;;;;25.30;79.60;;;;;;5016794;28;19936;-62
2022/09/01 09:31:42;;;;;;;;;;;25.30;79.60;;;;;;5017958;28;19925;-62
2022/09/01 09:34:17;;;;;;;;;;;25.40;79.60;;;;;;5002647;28;20448;-61
2022/09/01 09:36:46;;;;;;;;;;;25.40;79.60;;;;;;5008041;28;19933;-60
2022/09/01 09:39:20;;;;;;;;;;;25.40;79.60;;;;;;5007321;28;19937;-61
2022/09/01 09:42:07;;;;;;;;;;;25.40;79.60;;;;;;5004829;28;19937;-60
2022/09/01 09:44:42;;;;;;;;;;;25.40;79.60;;;;;;5009568;28;19930;-62
2022/09/01 09:47:29;;;;;;;;;;;25.40;79.50;;;;;;5007991;28;19942;-59
2022/09/01 09:50:30;;;;;;;;;;;25.40;79.50;;;;;;5014318;28;19936;-59
2022/09/01 09:53:27;;;;;;;;;;;25.40;79.40;;;;;;5010213;28;20394;-60
2022/09/01 09:56:24;;;;;;;;;;;25.50;79.50;;;;;;5005985;28;19934;-57
2022/09/01 09:58:52;;;;;;;;;;;25.50;79.50;;;;;;4990076;28;19936;-57
2022/09/01 10:01:22;;;;;;;;;;;25.50;79.50;;;;;;5006000;28;20380;-62
2022/09/01 10:03:55;;;;;;;;;;;25.50;79.40;;;;;;5013810;28;19937;-60
2022/09/01 10:06:34;;;;;;;;;;;25.50;79.50;;;;;;4994002;28;19930;-60
2022/09/01 10:09:04;;;;;;;;;;;25.50;79.50;;;;;;5013063;28;19926;-60
2022/09/01 10:11:32;;;;;;;;;;;25.50;79.50;;;;;;5020885;28;20647;-62
2022/09/01 10:14:04;;;;;;;;;;;25.50;79.60;;;;;;5008496;28;20523;-63
2022/09/01 10:16:36;;;;;;;;;;;25.50;79.60;;;;;;5019028;28;20389;-62
2022/09/01 10:19:04;;;;;;;;;;;25.50;79.70;;;;;;5012864;28;19936;-65
2022/09/01 10:21:46;;;;;;;;;;;25.40;80.20;;;;;;5006597;28;19929;-62
2022/09/01 10:24:18;;;;;;;;;;;25.40;79.70;;;;;;5020998;28;20515;-62
2022/09/01 10:26:54;;;;;;;;;;;25.40;79.60;;;;;;5028447;28;20359;-58
2022/09/01 10:29:36;;;;;;;;;;;25.50;79.70;;;;;;5022998;28;19930;-61
2022/09/01 10:32:19;;;;;;;;;;;25.50;79.70;;;;;;5014547;28;19936;-63
2022/09/01 10:35:03;;;;;;;;;;;25.40;80.30;;;;;;5006878;28;19930;-61
2022/09/01 10:37:32;;;;;;;;;;;25.50;79.70;;;;;;5011816;28;19932;-59
2022/09/01 10:40:14;;;;;;;;;;;25.50;79.70;;;;;;5012350;28;19930;-59
2022/09/01 10:42:52;;;;;;;;;;;25.50;79.70;;;;;;5014688;28;19929;-62
2022/09/01 10:45:29;;;;;;;;;;;25.50;79.60;;;;;;5011242;28;19925;-62
2022/09/01 10:48:16;;;;;;;;;;;25.50;79.60;;;;;;5020277;28;19929;-57
2022/09/01 10:51:14;;;;;;;;;;;25.50;79.60;;;;;;5014669;28;19930;-61
2022/09/01 10:53:46;;;;;;;;;;;25.50;79.50;;;;;;5017505;28;19936;-62
2022/09/01 10:56:32;;;;;;;;;;;25.50;79.50;;;;;;5026198;28;19936;-65
2022/09/01 10:59:16;;;;;;;;;;;25.50;79.60;;;;;;5021182;28;19936;-62
2022/09/01 11:02:10;;;;;;;;;;;25.50;79.50;;;;;;5003682;28;20381;-55
2022/09/01 11:04:57;;;;;;;;;;;25.50;79.50;;;;;;5017970;28;19936;-61
2022/09/01 11:07:29;;;;;;;;;;;25.50;79.50;;;;;;5011201;28;19937;-64
2022/09/01 11:10:29;;;;;;;;;;;25.50;79.60;;;;;;5017523;28;20659;-63
2022/09/01 11:13:27;;;;;;;;;;;25.60;79.60;;;;;;5010413;28;19937;-62
2022/09/01 11:15:55;;;;;;;;;;;25.50;79.60;;;;;;5016735;28;20309;-58
2022/09/01 11:18:29;;;;;;;;;;;25.50;79.60;;;;;;5020233;28;20338;-62
2022/09/01 11:21:22;;;;;;;;;;;25.60;79.60;;;;;;5015076;28;19982;-58
2022/09/01 11:23:50;;;;;;;;;;;25.50;79.50;;;;;;5013381;28;20257;-61
2022/09/01 11:26:31;;;;;;;;;;;25.60;79.70;;;;;;5021455;28;20322;-63
2022/09/01 11:28:58;;;;;;;;;;;25.60;79.80;;;;;;5009045;28;19932;-61
2022/09/01 11:31:25;;;;;;;;;;;25.50;79.70;;;;;;5008696;28;19936;-61
2022/09/01 11:34:08;;;;;;;;;;;25.50;79.70;;;;;;5019422;28;19929;-62
2022/09/01 11:36:44;;;;;;;;;;;25.50;79.70;;;;;;5001672;28;19929;-62
2022/09/01 11:39:28;;;;;;;;;;;25.60;79.70;;;;;;5005947;28;19930;-63
2022/09/01 11:42:00;;;;;;;;;;;25.60;79.60;;;;;;5017238;28;19930;-63
2022/09/01 11:44:36;;;;;;;;;;;25.60;79.60;;;;;;5023069;28;19929;-61
2022/09/01 11:47:05;;;;;;;;;;;25.60;79.60;;;;;;5010310;28;19953;-61
2022/09/01 11:49:45;;;;;;;;;;;25.60;79.60;;;;;;5027076;28;20320;-55
2022/09/01 11:52:15;;;;;;;;;;;25.60;79.50;;;;;;5015433;28;20486;-62
2022/09/01 11:54:45;;;;;;;;;;;25.60;79.50;;;;;;5010433;28;19929;-60
2022/09/01 11:57:18;;;;;;;;;;;25.60;79.50;;;;;;5024155;28;20518;-63
2022/09/01 11:59:45;;;;;;;;;;;25.60;79.50;;;;;;5030855;28;19929;-60
2022/09/01 12:02:16;;;;;;;;;;;25.60;79.50;;;;;;5017519;28;20317;-57
2022/09/01 12:04:45;;;;;;;;;;;25.60;79.50;;;;;;5020469;28;20325;-62
2022/09/01 12:07:22;;;;;;;;;;;25.60;79.50;;;;;;5010836;28;19929;-60
2022/09/01 12:09:50;;;;;;;;;;;25.60;79.50;;;;;;5018697;28;19925;-59
2022/09/01 12:12:37;;;;;;;;;;;25.60;79.50;;;;;;5014777;28;19930;-54
2022/09/01 12:15:05;;;;;;;;;;;25.60;79.50;;;;;;5013147;28;19940;-56
2022/09/01 12:17:33;;;;;;;;;;;25.60;79.50;;;;;;5010807;28;20431;-61
2022/09/01 12:20:20;;;;;;;;;;;25.60;79.50;;;;;;5028852;28;19929;-61
2022/09/01 12:22:53;;;;;;;;;;;25.60;79.50;;;;;;5026928;28;19929;-63
2022/09/01 12:25:21;;;;;;;;;;;25.60;79.50;;;;;;5025205;28;20314;-63
2022/09/01 12:27:52;;;;;;;;;;;25.60;79.50;;;;;;5016233;28;19934;-62
2022/09/01 12:30:19;;;;;;;;;;;25.60;79.50;;;;;;5023230;28;19926;-63
2022/09/01 12:32:47;;;;;;;;;;;25.60;79.50;;;;;;5020375;28;19932;-65
2022/09/01 12:35:25;;;;;;;;;;;25.60;79.50;;;;;;5018079;28;19956;-64
2022/09/01 12:38:12;;;;;;;;;;;25.60;79.60;;;;;;5016873;28;19926;-62
2022/09/01 12:40:39;;;;;;;;;;;25.60;79.50;;;;;;5013792;28;20496;-64
2022/09/01 12:43:06;;;;;;;;;;;25.60;80.20;;;;;;5000980;28;19925;-62
2022/09/01 12:45:44;;;;;;;;;;;25.50;79.60;;;;;;5017713;28;19933;-63
2022/09/01 12:48:29;;;;;;;;;;;25.60;79.70;;;;;;5013922;28;19936;-58
2022/09/01 12:51:18;;;;;;;;;;;25.60;79.70;;;;;;5005718;28;20325;-61
2022/09/01 12:54:11;;;;;;;;;;;25.60;79.70;;;;;;5001805;28;20573;-63
2022/09/01 12:56:38;;;;;;;;;;;25.60;79.80;;;;;;5009661;28;19933;-64
2022/09/01 12:59:05;;;;;;;;;;;25.70;79.90;;;;;;5024108;28;19932;-59
2022/09/01 13:01:42;;;;;;;;;;;25.70;79.90;;;;;;5021883;28;19952;-62
2022/09/01 13:04:11;;;;;;;;;;;25.70;79.80;;;;;;5009867;28;19929;-62
2022/09/01 13:06:39;;;;;;;;;;;25.70;79.60;;;;;;5002879;28;19929;-62
2022/09/01 13:09:07;;;;;;;;;;;25.70;79.50;;;;;;5008512;28;19933;-59
2022/09/01 13:11:34;;;;;;;;;;;25.80;79.50;;;;;;5005840;28;19929;-63
2022/09/01 13:14:22;;;;;;;;;;;25.80;79.50;;;;;;5014026;28;19930;-60
2022/09/01 13:16:49;;;;;;;;;;;25.90;79.50;;;;;;5012759;28;19926;-62
2022/09/01 13:19:17;;;;;;;;;;;25.90;79.40;;;;;;5012365;28;19941;-61
2022/09/01 13:21:54;;;;;;;;;;;25.90;79.40;;;;;;5021248;28;20477;-61
2022/09/01 13:24:22;;;;;;;;;;;25.80;79.40;;;;;;5013139;28;20334;-62
2022/09/01 13:26:56;;;;;;;;;;;25.80;79.40;;;;;;5024946;28;19933;-63
2022/09/01 13:29:44;;;;;;;;;;;25.80;79.40;;;;;;5014297;28;20321;-58
2022/09/01 13:32:11;;;;;;;;;;;25.90;79.50;;;;;;5003204;28;20418;-71
2022/09/01 13:34:49;;;;;;;;;;;25.90;79.40;;;;;;5001727;28;19936;-62
2022/09/01 13:37:19;;;;;;;;;;;25.90;79.40;;;;;;5004355;28;19929;-63
2022/09/01 13:39:47;;;;;;;;;;;26.00;79.40;;;;;;5006405;28;19929;-60
2022/09/01 13:42:15;;;;;;;;;;;26.00;79.40;;;;;;5009340;28;19936;-60
2022/09/01 13:44:42;;;;;;;;;;;26.00;79.40;;;;;;5013150;28;19929;-63
2022/09/01 13:47:10;;;;;;;;;;;26.00;79.40;;;;;;5016270;28;20346;-62
2022/09/01 13:49:59;;;;;;;;;;;26.00;79.40;;;;;;5007986;28;19936;-61
2022/09/01 13:52:38;;;;;;;;;;;26.00;79.30;;;;;;5008661;28;20000;-63
2022/09/01 13:55:07;;;;;;;;;;;26.00;79.20;;;;;;5025134;28;19940;-59
2022/09/01 13:57:34;;;;;;;;;;;26.10;79.20;;;;;;5005515;28;20293;-61
2022/09/01 14:00:09;;;;;;;;;;;26.10;79.10;;;;;;5010368;28;19929;-61
2022/09/01 14:02:40;;;;;;;;;;;26.20;79.00;;;;;;5010368;28;19940;-62
2022/09/01 14:05:08;;;;;;;;;;;26.20;78.80;;;;;;5003056;28;19930;-63
2022/09/01 14:07:36;;;;;;;;;;;26.30;78.80;;;;;;5004704;28;19940;-61
2022/09/01 14:10:03;;;;;;;;;;;26.40;78.70;;;;;;5016230;28;19929;-63
2022/09/01 14:12:31;;;;;;;;;;;26.40;78.60;;;;;;5013982;28;19925;-64
2022/09/01 14:14:58;;;;;;;;;;;26.40;78.50;;;;;;5016417;28;20000;-62
2022/09/01 14:17:46;;;;;;;;;;;26.50;78.50;;;;;;5005912;28;20333;-62
2022/09/01 14:20:18;;;;;;;;;;;26.50;78.30;;;;;;5018715;28;19929;-60
2022/09/01 14:22:46;;;;;;;;;;;26.60;78.30;;;;;;5010696;28;20445;-59
2022/09/01 14:25:14;;;;;;;;;;;26.60;78.20;;;;;;5014681;28;20189;-57
2022/09/01 14:27:41;;;;;;;;;;;26.60;78.10;;;;;;5021989;28;19930;-62
2022/09/01 14:30:13;;;;;;;;;;;26.60;78.20;;;;;;5025842;28;19936;-63
2022/09/01 14:32:40;;;;;;;;;;;26.60;78.20;;;;;;5028831;28;19929;-61
2022/09/01 14:35:08;;;;;;;;;;;26.60;78.20;;;;;;5024643;28;19929;-62
2022/09/01 14:37:38;;;;;;;;;;;26.60;78.30;;;;;;5020021;28;19944;-61
2022/09/01 14:40:07;;;;;;;;;;;26.50;78.40;;;;;;5008068;28;19937;-64
2022/09/01 14:42:35;;;;;;;;;;;26.50;78.40;;;;;;5019219;28;20419;-62
2022/09/01 14:45:03;;;;;;;;;;;26.50;78.50;;;;;;5011982;28;19934;-62
2022/09/01 14:47:31;;;;;;;;;;;26.40;78.60;;;;;;4999943;28;20634;-60
2022/09/01 14:50:00;;;;;;;;;;;26.40;78.70;;;;;;5015793;28;20224;-58
2022/09/01 14:52:27;;;;;;;;;;;26.40;78.80;;;;;;5004958;28;19933;-62
2022/09/01 14:54:54;;;;;;;;;;;26.30;78.70;;;;;;5018466;28;20308;-63
2022/09/01 14:57:22;;;;;;;;;;;26.40;78.90;;;;;;5019288;28;19924;-61
2022/09/01 15:00:08;;;;;;;;;;;26.40;78.90;;;;;;5016500;28;19933;-61